Gastonia, NC (28054)

9:05 PM EDT on July 27, 2016 (GMT -0400)
Catawba Hills | | Change Station

Elev 732 ft 35.22 °N, 81.11 °W | Updated 14 minutes ago

Clear
Clear
89.8 °F
Feels Like 99 °F
N
0.0
Wind Variable Wind from SSE

Today
High -- | Low -- °F
--% Chance of Precip.
Yesterday
High -- | Low -- °F
Precip. -- in
Pressure 29.93 in
Visibility 10.0 miles
Clouds Clear
Heat Index 99 °F
Dew Point 74 °F
Humidity 60%
Rainfall 0.00 in
Snow Depth Not available.
6:30 AM 8:31 PM
Last Quarter, 38% visible
METAR KAKH 280054Z AUTO 22003KT 10SM CLR 31/21 A2995 RMK AO2 SLP133 T03060211 TSNO
Pressure 29.93 in
Visibility 10.0 miles
Clouds Clear
Heat Index 99 °F
Dew Point 74 °F
Humidity 60%
Rainfall 0.00 in
Snow Depth Not available.
6:30 AM 8:31 PM
Last Quarter, 38% visible
METAR KAKH 280054Z AUTO 22003KT 10SM CLR 31/21 A2995 RMK AO2 SLP133 T03060211 TSNO

10-Day Weather Forecast

Almanac

Astronomy

Jul. 27, 2016 Rise Set
Actual Time
Civil Twilight
Nautical Twilight
Astronomical Twilight
Moon
Length of Visible Light
Length of Day
Tomorrow will be .
, % of the Moon is Illuminated

Today's Extremes

State Highs State Lows

Community

WunderPhotos

Upload Photos

1,927,987 photos uploaded!

WunderBlog® & News

Nearby

Air Quality

  Air Quality AQ Index Pollutant
Not available.

Snow Depth

Station Depth Elevation

Earthquake Activity

City Distance Mag. Time & Date
Minimum magnitude displayed is 2.5.

Coastal Water Temperatures

Place Temperature

Stations

Nearby Weather Stations

Station Location Temp. Windchill Dew Point Humidity Wind Precip. Elev Updated Type
                   

Watches & Warnings

There are currently no watches in effect.